sensor_id;sensor_type;location;lat;lon;timestamp;temperature;humidity
10233;DHT22;5161;48.174;11.756;2023-11-21T00:02:25;10.90;72.60
10233;DHT22;5161;48.174;11.756;2023-11-21T00:04:51;10.90;72.50
10233;DHT22;5161;48.174;11.756;2023-11-21T00:07:17;10.90;72.70
10233;DHT22;5161;48.174;11.756;2023-11-21T00:09:43;10.90;72.90
10233;DHT22;5161;48.174;11.756;2023-11-21T00:12:08;10.90;73.00
10233;DHT22;5161;48.174;11.756;2023-11-21T00:14:39;10.90;73.00
10233;DHT22;5161;48.174;11.756;2023-11-21T00:17:05;10.80;73.50
10233;DHT22;5161;48.174;11.756;2023-11-21T00:19:32;10.70;75.10
10233;DHT22;5161;48.174;11.756;2023-11-21T00:21:58;10.70;75.30
10233;DHT22;5161;48.174;11.756;2023-11-21T00:24:24;10.70;75.20
10233;DHT22;5161;48.174;11.756;2023-11-21T00:26:51;10.70;75.50
10233;DHT22;5161;48.174;11.756;2023-11-21T00:29:16;10.70;75.70
10233;DHT22;5161;48.174;11.756;2023-11-21T00:31:43;10.50;76.10
10233;DHT22;5161;48.174;11.756;2023-11-21T00:34:11;10.50;76.40
10233;DHT22;5161;48.174;11.756;2023-11-21T00:36:37;10.50;77.20
10233;DHT22;5161;48.174;11.756;2023-11-21T00:39:03;10.50;76.90
10233;DHT22;5161;48.174;11.756;2023-11-21T00:41:29;10.60;76.90
10233;DHT22;5161;48.174;11.756;2023-11-21T00:43:54;10.50;77.10
10233;DHT22;5161;48.174;11.756;2023-11-21T00:46:20;10.50;77.10
10233;DHT22;5161;48.174;11.756;2023-11-21T00:48:46;10.50;77.20
10233;DHT22;5161;48.174;11.756;2023-11-21T00:51:12;10.50;77.50
10233;DHT22;5161;48.174;11.756;2023-11-21T00:53:37;10.50;77.30
10233;DHT22;5161;48.174;11.756;2023-11-21T00:56:03;10.50;77.30
10233;DHT22;5161;48.174;11.756;2023-11-21T00:58:29;10.60;77.20
10233;DHT22;5161;48.174;11.756;2023-11-21T01:00:55;10.70;77.40
10233;DHT22;5161;48.174;11.756;2023-11-21T01:03:21;10.70;77.30
10233;DHT22;5161;48.174;11.756;2023-11-21T01:05:47;10.70;77.40
10233;DHT22;5161;48.174;11.756;2023-11-21T01:08:15;10.70;77.30
10233;DHT22;5161;48.174;11.756;2023-11-21T01:10:41;10.70;77.40
10233;DHT22;5161;48.174;11.756;2023-11-21T01:13:06;10.70;77.40
10233;DHT22;5161;48.174;11.756;2023-11-21T01:15:33;10.70;77.60
10233;DHT22;5161;48.174;11.756;2023-11-21T01:17:59;10.70;77.70
10233;DHT22;5161;48.174;11.756;2023-11-21T01:20:24;10.60;77.60
10233;DHT22;5161;48.174;11.756;2023-11-21T01:22:50;10.60;77.80
10233;DHT22;5161;48.174;11.756;2023-11-21T01:25:16;10.70;77.90
10233;DHT22;5161;48.174;11.756;2023-11-21T01:27:42;10.70;77.90
10233;DHT22;5161;48.174;11.756;2023-11-21T01:30:08;10.70;78.10
10233;DHT22;5161;48.174;11.756;2023-11-21T01:32:36;10.70;77.90
10233;DHT22;5161;48.174;11.756;2023-11-21T01:35:02;10.70;78.20
10233;DHT22;5161;48.174;11.756;2023-11-21T01:37:27;10.70;78.20
10233;DHT22;5161;48.174;11.756;2023-11-21T01:39:54;10.70;78.30
10233;DHT22;5161;48.174;11.756;2023-11-21T01:42:23;10.60;78.50
10233;DHT22;5161;48.174;11.756;2023-11-21T01:44:48;10.70;78.70
10233;DHT22;5161;48.174;11.756;2023-11-21T01:47:14;10.70;78.70
10233;DHT22;5161;48.174;11.756;2023-11-21T01:49:43;10.70;78.60
10233;DHT22;5161;48.174;11.756;2023-11-21T01:52:09;10.60;78.90
10233;DHT22;5161;48.174;11.756;2023-11-21T01:54:36;10.60;78.70
10233;DHT22;5161;48.174;11.756;2023-11-21T01:57:04;10.60;78.70
10233;DHT22;5161;48.174;11.756;2023-11-21T01:59:35;10.60;78.90
10233;DHT22;5161;48.174;11.756;2023-11-21T02:02:05;10.60;79.30
10233;DHT22;5161;48.174;11.756;2023-11-21T02:04:35;10.60;78.70
10233;DHT22;5161;48.174;11.756;2023-11-21T02:07:02;10.60;79.30
10233;DHT22;5161;48.174;11.756;2023-11-21T02:09:31;10.60;78.80
10233;DHT22;5161;48.174;11.756;2023-11-21T02:12:03;10.60;78.80
10233;DHT22;5161;48.174;11.756;2023-11-21T02:14:29;10.60;78.70
10233;DHT22;5161;48.174;11.756;2023-11-21T02:16:56;10.60;78.60
10233;DHT22;5161;48.174;11.756;2023-11-21T02:19:26;10.50;78.70
10233;DHT22;5161;48.174;11.756;2023-11-21T02:21:53;10.50;78.70
10233;DHT22;5161;48.174;11.756;2023-11-21T02:24:22;10.50;78.90
10233;DHT22;5161;48.174;11.756;2023-11-21T02:26:51;10.50;79.50
10233;DHT22;5161;48.174;11.756;2023-11-21T02:29:21;10.50;79.90
10233;DHT22;5161;48.174;11.756;2023-11-21T02:31:54;10.40;80.00
10233;DHT22;5161;48.174;11.756;2023-11-21T02:34:20;10.30;79.30
10233;DHT22;5161;48.174;11.756;2023-11-21T02:36:47;10.10;79.70
10233;DHT22;5161;48.174;11.756;2023-11-21T02:39:15;10.10;79.10
10233;DHT22;5161;48.174;11.756;2023-11-21T02:41:42;10.20;79.80
10233;DHT22;5161;48.174;11.756;2023-11-21T02:44:08;10.30;80.00
10233;DHT22;5161;48.174;11.756;2023-11-21T02:46:36;10.30;80.00
10233;DHT22;5161;48.174;11.756;2023-11-21T02:49:04;10.40;80.20
10233;DHT22;5161;48.174;11.756;2023-11-21T02:51:31;10.40;79.00
10233;DHT22;5161;48.174;11.756;2023-11-21T02:53:57;10.40;80.50
10233;DHT22;5161;48.174;11.756;2023-11-21T02:56:28;10.40;80.00
10233;DHT22;5161;48.174;11.756;2023-11-21T02:58:57;10.20;79.40
10233;DHT22;5161;48.174;11.756;2023-11-21T03:01:23;10.30;78.30
10233;DHT22;5161;48.174;11.756;2023-11-21T03:03:53;10.30;79.40
10233;DHT22;5161;48.174;11.756;2023-11-21T03:06:19;10.30;79.80
10233;DHT22;5161;48.174;11.756;2023-11-21T03:08:45;10.20;79.60
10233;DHT22;5161;48.174;11.756;2023-11-21T03:11:10;10.10;79.70
10233;DHT22;5161;48.174;11.756;2023-11-21T03:13:36;10.20;80.00
10233;DHT22;5161;48.174;11.756;2023-11-21T03:16:01;10.20;79.90
10233;DHT22;5161;48.174;11.756;2023-11-21T03:18:27;10.20;79.90
10233;DHT22;5161;48.174;11.756;2023-11-21T03:20:54;10.20;80.10
10233;DHT22;5161;48.174;11.756;2023-11-21T03:23:20;10.20;80.20
10233;DHT22;5161;48.174;11.756;2023-11-21T03:25:46;10.30;80.60
10233;DHT22;5161;48.174;11.756;2023-11-21T03:28:11;10.30;80.70
10233;DHT22;5161;48.174;11.756;2023-11-21T03:30:37;10.30;80.50
10233;DHT22;5161;48.174;11.756;2023-11-21T03:33:02;10.30;80.80
10233;DHT22;5161;48.174;11.756;2023-11-21T03:35:28;10.30;80.70
10233;DHT22;5161;48.174;11.756;2023-11-21T03:37:53;10.30;81.00
10233;DHT22;5161;48.174;11.756;2023-11-21T03:40:19;10.30;81.00
10233;DHT22;5161;48.174;11.756;2023-11-21T03:42:46;10.30;80.70
10233;DHT22;5161;48.174;11.756;2023-11-21T03:45:12;10.30;80.50
10233;DHT22;5161;48.174;11.756;2023-11-21T03:47:38;10.30;80.70
10233;DHT22;5161;48.174;11.756;2023-11-21T03:50:04;10.30;80.80
10233;DHT22;5161;48.174;11.756;2023-11-21T03:52:30;10.30;80.30
10233;DHT22;5161;48.174;11.756;2023-11-21T03:54:56;10.30;81.70
10233;DHT22;5161;48.174;11.756;2023-11-21T03:57:21;10.30;81.20
10233;DHT22;5161;48.174;11.756;2023-11-21T03:59:47;10.30;81.20
10233;DHT22;5161;48.174;11.756;2023-11-21T04:02:13;10.30;81.10
10233;DHT22;5161;48.174;11.756;2023-11-21T04:04:38;10.20;81.00
10233;DHT22;5161;48.174;11.756;2023-11-21T04:07:04;10.20;80.90
10233;DHT22;5161;48.174;11.756;2023-11-21T04:09:30;10.20;81.60
10233;DHT22;5161;48.174;11.756;2023-11-21T04:11:56;10.20;81.00
10233;DHT22;5161;48.174;11.756;2023-11-21T04:14:23;10.20;81.00
10233;DHT22;5161;48.174;11.756;2023-11-21T04:16:48;10.20;80.80
10233;DHT22;5161;48.174;11.756;2023-11-21T04:19:14;10.20;81.20
10233;DHT22;5161;48.174;11.756;2023-11-21T04:21:40;10.20;81.00
10233;DHT22;5161;48.174;11.756;2023-11-21T04:24:06;10.20;80.90
10233;DHT22;5161;48.174;11.756;2023-11-21T04:26:32;10.20;80.50
10233;DHT22;5161;48.174;11.756;2023-11-21T04:28:58;10.20;80.80
10233;DHT22;5161;48.174;11.756;2023-11-21T04:31:24;10.20;80.80
10233;DHT22;5161;48.174;11.756;2023-11-21T04:33:49;10.20;80.70
10233;DHT22;5161;48.174;11.756;2023-11-21T04:36:15;10.20;80.60
10233;DHT22;5161;48.174;11.756;2023-11-21T04:38:40;10.20;80.50
10233;DHT22;5161;48.174;11.756;2023-11-21T04:41:06;10.20;80.50
10233;DHT22;5161;48.174;11.756;2023-11-21T04:43:32;10.10;80.40
10233;DHT22;5161;48.174;11.756;2023-11-21T04:45:57;10.10;80.50
10233;DHT22;5161;48.174;11.756;2023-11-21T04:48:23;10.20;80.40
10233;DHT22;5161;48.174;11.756;2023-11-21T04:50:49;10.20;79.80
10233;DHT22;5161;48.174;11.756;2023-11-21T04:53:14;10.10;79.50
10233;DHT22;5161;48.174;11.756;2023-11-21T04:55:42;10.10;79.90
10233;DHT22;5161;48.174;11.756;2023-11-21T04:58:08;10.10;79.50
10233;DHT22;5161;48.174;11.756;2023-11-21T05:00:34;10.20;80.60
10233;DHT22;5161;48.174;11.756;2023-11-21T05:02:59;10.30;80.80
10233;DHT22;5161;48.174;11.756;2023-11-21T05:05:26;10.30;80.90
10233;DHT22;5161;48.174;11.756;2023-11-21T05:07:52;10.30;80.60
10233;DHT22;5161;48.174;11.756;2023-11-21T05:10:19;10.30;80.50
10233;DHT22;5161;48.174;11.756;2023-11-21T05:12:45;10.30;80.30
10233;DHT22;5161;48.174;11.756;2023-11-21T05:15:14;10.30;80.50
10233;DHT22;5161;48.174;11.756;2023-11-21T05:17:40;10.30;79.40
10233;DHT22;5161;48.174;11.756;2023-11-21T05:20:15;10.20;80.10
10233;DHT22;5161;48.174;11.756;2023-11-21T05:22:47;10.20;80.00
10233;DHT22;5161;48.174;11.756;2023-11-21T05:25:14;10.30;79.90
10233;DHT22;5161;48.174;11.756;2023-11-21T05:27:39;10.20;79.90
10233;DHT22;5161;48.174;11.756;2023-11-21T05:30:05;10.20;80.10
10233;DHT22;5161;48.174;11.756;2023-11-21T05:32:32;10.20;79.60
10233;DHT22;5161;48.174;11.756;2023-11-21T05:34:58;10.20;80.30
10233;DHT22;5161;48.174;11.756;2023-11-21T05:37:24;10.30;81.00
10233;DHT22;5161;48.174;11.756;2023-11-21T05:39:52;10.30;80.90
10233;DHT22;5161;48.174;11.756;2023-11-21T05:42:18;10.20;81.00
10233;DHT22;5161;48.174;11.756;2023-11-21T05:44:43;10.20;80.50
10233;DHT22;5161;48.174;11.756;2023-11-21T05:47:09;10.30;80.90
10233;DHT22;5161;48.174;11.756;2023-11-21T05:49:36;10.20;79.90
10233;DHT22;5161;48.174;11.756;2023-11-21T05:52:02;10.20;80.10
10233;DHT22;5161;48.174;11.756;2023-11-21T05:54:28;10.20;80.20
10233;DHT22;5161;48.174;11.756;2023-11-21T05:56:53;10.20;80.50
10233;DHT22;5161;48.174;11.756;2023-11-21T05:59:19;10.20;80.10
10233;DHT22;5161;48.174;11.756;2023-11-21T06:01:45;10.20;80.30
10233;DHT22;5161;48.174;11.756;2023-11-21T06:04:11;10.20;80.10
10233;DHT22;5161;48.174;11.756;2023-11-21T06:06:38;10.20;80.40
10233;DHT22;5161;48.174;11.756;2023-11-21T06:09:04;10.20;80.40
10233;DHT22;5161;48.174;11.756;2023-11-21T06:11:31;10.20;80.50
10233;DHT22;5161;48.174;11.756;2023-11-21T06:13:57;10.20;80.30
10233;DHT22;5161;48.174;11.756;2023-11-21T06:16:23;10.20;80.50
10233;DHT22;5161;48.174;11.756;2023-11-21T06:18:49;10.20;80.10
10233;DHT22;5161;48.174;11.756;2023-11-21T06:21:15;10.20;80.20
10233;DHT22;5161;48.174;11.756;2023-11-21T06:23:42;10.20;80.10
10233;DHT22;5161;48.174;11.756;2023-11-21T06:26:07;10.20;80.20
10233;DHT22;5161;48.174;11.756;2023-11-21T06:28:34;10.20;80.30
10233;DHT22;5161;48.174;11.756;2023-11-21T06:31:01;10.20;80.10
10233;DHT22;5161;48.174;11.756;2023-11-21T06:33:33;10.00;79.20
10233;DHT22;5161;48.174;11.756;2023-11-21T06:35:59;10.00;77.80
10233;DHT22;5161;48.174;11.756;2023-11-21T06:38:28;10.00;79.40
10233;DHT22;5161;48.174;11.756;2023-11-21T06:40:55;10.10;79.90
10233;DHT22;5161;48.174;11.756;2023-11-21T06:43:21;10.10;80.00
10233;DHT22;5161;48.174;11.756;2023-11-21T06:45:47;10.10;79.80
10233;DHT22;5161;48.174;11.756;2023-11-21T06:48:13;10.00;79.50
10233;DHT22;5161;48.174;11.756;2023-11-21T06:50:38;10.00;79.50
10233;DHT22;5161;48.174;11.756;2023-11-21T06:53:04;9.90;80.20
10233;DHT22;5161;48.174;11.756;2023-11-21T06:55:32;10.00;79.60
10233;DHT22;5161;48.174;11.756;2023-11-21T06:57:58;9.90;80.50
10233;DHT22;5161;48.174;11.756;2023-11-21T07:00:25;9.90;80.50
10233;DHT22;5161;48.174;11.756;2023-11-21T07:02:51;10.00;79.70
10233;DHT22;5161;48.174;11.756;2023-11-21T07:05:16;10.00;79.50
10233;DHT22;5161;48.174;11.756;2023-11-21T07:07:46;10.00;79.40
10233;DHT22;5161;48.174;11.756;2023-11-21T07:10:11;10.00;79.60
10233;DHT22;5161;48.174;11.756;2023-11-21T07:12:38;9.90;80.70
10233;DHT22;5161;48.174;11.756;2023-11-21T07:15:04;10.00;79.80
10233;DHT22;5161;48.174;11.756;2023-11-21T07:17:32;10.00;79.50
10233;DHT22;5161;48.174;11.756;2023-11-21T07:19:58;10.10;80.20
10233;DHT22;5161;48.174;11.756;2023-11-21T07:22:23;10.10;80.30
10233;DHT22;5161;48.174;11.756;2023-11-21T07:24:49;10.10;80.10
10233;DHT22;5161;48.174;11.756;2023-11-21T07:27:16;10.10;79.80
10233;DHT22;5161;48.174;11.756;2023-11-21T07:29:42;10.10;80.10
10233;DHT22;5161;48.174;11.756;2023-11-21T07:32:07;10.00;79.60
10233;DHT22;5161;48.174;11.756;2023-11-21T07:34:35;9.90;80.20
10233;DHT22;5161;48.174;11.756;2023-11-21T07:37:01;10.00;79.50
10233;DHT22;5161;48.174;11.756;2023-11-21T07:39:27;10.10;79.90
10233;DHT22;5161;48.174;11.756;2023-11-21T07:41:52;10.10;80.00
10233;DHT22;5161;48.174;11.756;2023-11-21T07:44:18;10.20;80.50
10233;DHT22;5161;48.174;11.756;2023-11-21T07:46:45;10.20;80.50
10233;DHT22;5161;48.174;11.756;2023-11-21T07:49:11;10.20;80.50
10233;DHT22;5161;48.174;11.756;2023-11-21T07:51:36;10.20;80.30
10233;DHT22;5161;48.174;11.756;2023-11-21T07:54:02;10.20;80.30
10233;DHT22;5161;48.174;11.756;2023-11-21T07:56:28;10.00;79.60
10233;DHT22;5161;48.174;11.756;2023-11-21T07:58:53;9.90;80.50
10233;DHT22;5161;48.174;11.756;2023-11-21T08:01:19;10.00;79.50
10233;DHT22;5161;48.174;11.756;2023-11-21T08:03:45;10.00;79.60
10233;DHT22;5161;48.174;11.756;2023-11-21T08:06:10;10.10;80.20
10233;DHT22;5161;48.174;11.756;2023-11-21T08:08:37;10.20;80.60
10233;DHT22;5161;48.174;11.756;2023-11-21T08:11:03;10.20;80.70
10233;DHT22;5161;48.174;11.756;2023-11-21T08:13:29;10.20;80.60
10233;DHT22;5161;48.174;11.756;2023-11-21T08:15:58;10.30;79.90
10233;DHT22;5161;48.174;11.756;2023-11-21T08:18:30;10.30;80.50
10233;DHT22;5161;48.174;11.756;2023-11-21T08:20:56;10.30;80.80
10233;DHT22;5161;48.174;11.756;2023-11-21T08:23:22;10.20;80.30
10233;DHT22;5161;48.174;11.756;2023-11-21T08:25:54;10.20;79.80
10233;DHT22;5161;48.174;11.756;2023-11-21T08:28:20;10.30;79.80
10233;DHT22;5161;48.174;11.756;2023-11-21T08:30:47;10.30;80.50
10233;DHT22;5161;48.174;11.756;2023-11-21T08:33:13;10.20;80.80
10233;DHT22;5161;48.174;11.756;2023-11-21T08:35:39;10.30;80.00
10233;DHT22;5161;48.174;11.756;2023-11-21T08:38:05;10.30;80.20
10233;DHT22;5161;48.174;11.756;2023-11-21T08:40:30;10.30;79.70
10233;DHT22;5161;48.174;11.756;2023-11-21T08:42:56;10.30;79.20
10233;DHT22;5161;48.174;11.756;2023-11-21T08:45:24;10.20;79.60
10233;DHT22;5161;48.174;11.756;2023-11-21T08:47:51;10.30;79.80
10233;DHT22;5161;48.174;11.756;2023-11-21T08:50:16;10.40;80.30
10233;DHT22;5161;48.174;11.756;2023-11-21T08:52:44;10.40;80.30
10233;DHT22;5161;48.174;11.756;2023-11-21T08:55:09;10.40;79.00
10233;DHT22;5161;48.174;11.756;2023-11-21T08:57:38;10.30;79.90
10233;DHT22;5161;48.174;11.756;2023-11-21T09:00:06;10.30;79.30
10233;DHT22;5161;48.174;11.756;2023-11-21T09:02:33;10.30;79.00
10233;DHT22;5161;48.174;11.756;2023-11-21T09:05:03;10.40;79.90
10233;DHT22;5161;48.174;11.756;2023-11-21T09:07:29;10.50;80.50
10233;DHT22;5161;48.174;11.756;2023-11-21T09:09:55;10.40;79.80
10233;DHT22;5161;48.174;11.756;2023-11-21T09:12:21;10.40;80.20
10233;DHT22;5161;48.174;11.756;2023-11-21T09:14:47;10.40;80.10
10233;DHT22;5161;48.174;11.756;2023-11-21T09:17:12;10.40;80.50
10233;DHT22;5161;48.174;11.756;2023-11-21T09:19:40;10.40;80.60
10233;DHT22;5161;48.174;11.756;2023-11-21T09:22:06;10.50;80.90
10233;DHT22;5161;48.174;11.756;2023-11-21T09:24:32;10.50;80.80
10233;DHT22;5161;48.174;11.756;2023-11-21T09:26:58;10.40;80.20
10233;DHT22;5161;48.174;11.756;2023-11-21T09:29:25;10.50;80.50
10233;DHT22;5161;48.174;11.756;2023-11-21T09:31:51;10.40;80.40
10233;DHT22;5161;48.174;11.756;2023-11-21T09:34:17;10.50;80.80
10233;DHT22;5161;48.174;11.756;2023-11-21T09:36:46;10.50;80.60
10233;DHT22;5161;48.174;11.756;2023-11-21T09:39:13;10.50;79.00
10233;DHT22;5161;48.174;11.756;2023-11-21T09:41:54;10.50;81.00
10233;DHT22;5161;48.174;11.756;2023-11-21T09:44:32;10.50;77.90
10233;DHT22;5161;48.174;11.756;2023-11-21T09:46:59;10.50;79.00
10233;DHT22;5161;48.174;11.756;2023-11-21T09:49:26;10.40;80.30
10233;DHT22;5161;48.174;11.756;2023-11-21T09:51:55;10.40;79.50
10233;DHT22;5161;48.174;11.756;2023-11-21T09:54:21;10.50;79.50
10233;DHT22;5161;48.174;11.756;2023-11-21T09:56:47;10.40;80.20
10233;DHT22;5161;48.174;11.756;2023-11-21T09:59:14;10.50;80.50
10233;DHT22;5161;48.174;11.756;2023-11-21T10:01:41;10.60;81.10
10233;DHT22;5161;48.174;11.756;2023-11-21T10:04:08;10.60;81.10
10233;DHT22;5161;48.174;11.756;2023-11-21T10:06:39;10.70;81.50
10233;DHT22;5161;48.174;11.756;2023-11-21T10:09:10;10.70;80.60
10233;DHT22;5161;48.174;11.756;2023-11-21T10:11:40;10.80;80.90
10233;DHT22;5161;48.174;11.756;2023-11-21T10:14:10;10.60;80.60
10233;DHT22;5161;48.174;11.756;2023-11-21T10:16:36;10.70;81.70
10233;DHT22;5161;48.174;11.756;2023-11-21T10:19:04;10.80;82.00
10233;DHT22;5161;48.174;11.756;2023-11-21T10:21:32;10.80;81.70
10233;DHT22;5161;48.174;11.756;2023-11-21T10:23:59;10.90;82.00
10233;DHT22;5161;48.174;11.756;2023-11-21T10:26:26;10.90;81.40
10233;DHT22;5161;48.174;11.756;2023-11-21T10:28:58;11.00;82.30
10233;DHT22;5161;48.174;11.756;2023-11-21T10:31:27;11.00;81.40
10233;DHT22;5161;48.174;11.756;2023-11-21T10:33:53;11.10;81.40
10233;DHT22;5161;48.174;11.756;2023-11-21T10:36:26;11.10;81.40
10233;DHT22;5161;48.174;11.756;2023-11-21T10:38:53;11.00;81.00
10233;DHT22;5161;48.174;11.756;2023-11-21T10:41:19;11.00;81.60
10233;DHT22;5161;48.174;11.756;2023-11-21T10:43:45;11.10;81.70
10233;DHT22;5161;48.174;11.756;2023-11-21T10:46:11;11.10;81.50
10233;DHT22;5161;48.174;11.756;2023-11-21T10:48:36;11.20;81.40
10233;DHT22;5161;48.174;11.756;2023-11-21T10:51:07;11.20;80.70
10233;DHT22;5161;48.174;11.756;2023-11-21T10:53:33;11.20;82.10
10233;DHT22;5161;48.174;11.756;2023-11-21T10:56:06;11.10;80.70
10233;DHT22;5161;48.174;11.756;2023-11-21T10:58:33;11.00;80.50
10233;DHT22;5161;48.174;11.756;2023-11-21T11:01:01;11.00;81.50
10233;DHT22;5161;48.174;11.756;2023-11-21T11:03:30;11.10;81.70
10233;DHT22;5161;48.174;11.756;2023-11-21T11:05:59;11.00;81.70
10233;DHT22;5161;48.174;11.756;2023-11-21T11:08:26;11.10;81.70
10233;DHT22;5161;48.174;11.756;2023-11-21T11:10:53;11.10;81.90
10233;DHT22;5161;48.174;11.756;2023-11-21T11:13:18;11.10;81.50
10233;DHT22;5161;48.174;11.756;2023-11-21T11:15:48;11.00;81.10
10233;DHT22;5161;48.174;11.756;2023-11-21T11:18:14;11.10;81.90
10233;DHT22;5161;48.174;11.756;2023-11-21T11:20:42;11.10;81.80
10233;DHT22;5161;48.174;11.756;2023-11-21T11:23:57;11.10;82.50
10233;DHT22;5161;48.174;11.756;2023-11-21T11:26:16;11.20;81.60
10233;DHT22;5161;48.174;11.756;2023-11-21T11:28:57;11.20;80.00
10233;DHT22;5161;48.174;11.756;2023-11-21T11:34:53;11.20;79.20
10233;DHT22;5161;48.174;11.756;2023-11-21T11:37:22;11.20;80.30
10233;DHT22;5161;48.174;11.756;2023-11-21T11:39:49;11.20;81.30
10233;DHT22;5161;48.174;11.756;2023-11-21T11:42:17;11.30;81.50
10233;DHT22;5161;48.174;11.756;2023-11-21T11:47:31;11.20;80.80
10233;DHT22;5161;48.174;11.756;2023-11-21T11:50:07;11.30;80.70
10233;DHT22;5161;48.174;11.756;2023-11-21T11:52:46;11.20;81.60
10233;DHT22;5161;48.174;11.756;2023-11-21T11:55:16;11.20;80.50
10233;DHT22;5161;48.174;11.756;2023-11-21T11:57:48;11.20;82.50
10233;DHT22;5161;48.174;11.756;2023-11-21T12:00:44;11.20;81.60
10233;DHT22;5161;48.174;11.756;2023-11-21T12:03:10;11.20;81.60
10233;DHT22;5161;48.174;11.756;2023-11-21T12:05:36;11.30;81.50
10233;DHT22;5161;48.174;11.756;2023-11-21T12:08:06;11.30;81.40
10233;DHT22;5161;48.174;11.756;2023-11-21T12:10:36;11.30;81.60
10233;DHT22;5161;48.174;11.756;2023-11-21T12:13:09;11.20;81.90
10233;DHT22;5161;48.174;11.756;2023-11-21T12:15:37;11.30;82.00
10233;DHT22;5161;48.174;11.756;2023-11-21T12:18:03;11.30;81.40
10233;DHT22;5161;48.174;11.756;2023-11-21T12:20:30;11.30;81.40
10233;DHT22;5161;48.174;11.756;2023-11-21T12:23:00;11.30;81.50
10233;DHT22;5161;48.174;11.756;2023-11-21T12:25:30;11.30;82.10
10233;DHT22;5161;48.174;11.756;2023-11-21T12:27:58;11.30;82.50
10233;DHT22;5161;48.174;11.756;2023-11-21T12:30:26;11.30;81.20
10233;DHT22;5161;48.174;11.756;2023-11-21T12:32:57;11.30;81.30
10233;DHT22;5161;48.174;11.756;2023-11-21T12:35:25;11.30;81.10
10233;DHT22;5161;48.174;11.756;2023-11-21T12:37:52;11.30;81.40
10233;DHT22;5161;48.174;11.756;2023-11-21T12:40:19;11.40;81.10
10233;DHT22;5161;48.174;11.756;2023-11-21T12:42:46;11.40;81.00
10233;DHT22;5161;48.174;11.756;2023-11-21T12:50:22;11.40;82.10
10233;DHT22;5161;48.174;11.756;2023-11-21T12:52:58;11.40;80.80
10233;DHT22;5161;48.174;11.756;2023-11-21T12:55:24;11.50;81.00
10233;DHT22;5161;48.174;11.756;2023-11-21T12:57:53;11.50;80.70
10233;DHT22;5161;48.174;11.756;2023-11-21T13:00:32;11.50;80.50
10233;DHT22;5161;48.174;11.756;2023-11-21T13:02:59;11.50;81.00
10233;DHT22;5161;48.174;11.756;2023-11-21T13:05:30;11.50;80.20
10233;DHT22;5161;48.174;11.756;2023-11-21T13:07:58;11.40;80.60
10233;DHT22;5161;48.174;11.756;2023-11-21T13:10:25;11.40;81.50
10233;DHT22;5161;48.174;11.756;2023-11-21T13:12:55;11.40;81.60
10233;DHT22;5161;48.174;11.756;2023-11-21T13:15:24;11.50;81.70
10233;DHT22;5161;48.174;11.756;2023-11-21T13:17:50;11.50;81.90
10233;DHT22;5161;48.174;11.756;2023-11-21T13:20:17;11.50;82.00
10233;DHT22;5161;48.174;11.756;2023-11-21T13:22:54;11.50;82.00
10233;DHT22;5161;48.174;11.756;2023-11-21T13:25:25;11.50;82.90
10233;DHT22;5161;48.174;11.756;2023-11-21T13:28:00;11.50;82.60
10233;DHT22;5161;48.174;11.756;2023-11-21T13:30:28;11.50;82.50
10233;DHT22;5161;48.174;11.756;2023-11-21T13:33:03;11.50;82.20
10233;DHT22;5161;48.174;11.756;2023-11-21T13:35:32;11.40;83.10
10233;DHT22;5161;48.174;11.756;2023-11-21T13:38:09;11.40;83.20
10233;DHT22;5161;48.174;11.756;2023-11-21T13:40:36;11.30;83.10
10233;DHT22;5161;48.174;11.756;2023-11-21T13:43:17;11.30;83.60
10233;DHT22;5161;48.174;11.756;2023-11-21T13:45:47;11.30;84.30
10233;DHT22;5161;48.174;11.756;2023-11-21T13:48:13;11.30;84.50
10233;DHT22;5161;48.174;11.756;2023-11-21T13:50:43;11.30;84.60
10233;DHT22;5161;48.174;11.756;2023-11-21T13:53:34;11.30;83.60
10233;DHT22;5161;48.174;11.756;2023-11-21T13:56:03;11.30;85.20
10233;DHT22;5161;48.174;11.756;2023-11-21T13:58:28;11.30;85.00
10233;DHT22;5161;48.174;11.756;2023-11-21T14:01:10;11.30;85.10
10233;DHT22;5161;48.174;11.756;2023-11-21T14:04:03;11.30;84.70
10233;DHT22;5161;48.174;11.756;2023-11-21T14:06:42;11.30;83.80
10233;DHT22;5161;48.174;11.756;2023-11-21T14:09:17;11.20;84.40
10233;DHT22;5161;48.174;11.756;2023-11-21T14:12:01;11.20;83.00
10233;DHT22;5161;48.174;11.756;2023-11-21T14:14:31;11.10;84.00
10233;DHT22;5161;48.174;11.756;2023-11-21T14:16:56;11.10;83.80
10233;DHT22;5161;48.174;11.756;2023-11-21T14:19:24;11.10;84.50
10233;DHT22;5161;48.174;11.756;2023-11-21T14:21:53;11.10;84.30
10233;DHT22;5161;48.174;11.756;2023-11-21T14:24:19;11.10;84.50
10233;DHT22;5161;48.174;11.756;2023-11-21T14:26:46;11.00;83.70
10233;DHT22;5161;48.174;11.756;2023-11-21T14:29:12;11.00;83.60
10233;DHT22;5161;48.174;11.756;2023-11-21T14:31:40;11.00;83.60
10233;DHT22;5161;48.174;11.756;2023-11-21T14:34:07;11.00;83.60
10233;DHT22;5161;48.174;11.756;2023-11-21T14:36:33;11.00;83.60
10233;DHT22;5161;48.174;11.756;2023-11-21T14:38:59;10.90;83.40
10233;DHT22;5161;48.174;11.756;2023-11-21T14:41:25;10.90;84.00
10233;DHT22;5161;48.174;11.756;2023-11-21T14:43:54;10.90;83.20
10233;DHT22;5161;48.174;11.756;2023-11-21T14:46:20;10.90;83.50
10233;DHT22;5161;48.174;11.756;2023-11-21T14:48:46;10.90;83.80
10233;DHT22;5161;48.174;11.756;2023-11-21T14:51:31;10.90;83.70
10233;DHT22;5161;48.174;11.756;2023-11-21T14:53:58;10.80;83.50
10233;DHT22;5161;48.174;11.756;2023-11-21T14:56:33;10.80;82.40
10233;DHT22;5161;48.174;11.756;2023-11-21T14:59:01;10.80;83.00
10233;DHT22;5161;48.174;11.756;2023-11-21T15:01:41;10.80;82.30
10233;DHT22;5161;48.174;11.756;2023-11-21T15:04:19;10.80;82.30
10233;DHT22;5161;48.174;11.756;2023-11-21T15:07:02;10.70;82.40
10233;DHT22;5161;48.174;11.756;2023-11-21T15:09:28;10.80;82.40
10233;DHT22;5161;48.174;11.756;2023-11-21T15:12:04;10.80;83.00
10233;DHT22;5161;48.174;11.756;2023-11-21T15:14:51;10.80;83.10
10233;DHT22;5161;48.174;11.756;2023-11-21T15:17:21;10.80;82.20
10233;DHT22;5161;48.174;11.756;2023-11-21T15:19:56;10.80;83.00
10233;DHT22;5161;48.174;11.756;2023-11-21T15:22:22;10.80;83.20
10233;DHT22;5161;48.174;11.756;2023-11-21T15:24:48;10.80;83.90
10233;DHT22;5161;48.174;11.756;2023-11-21T15:27:15;10.80;83.50
10233;DHT22;5161;48.174;11.756;2023-11-21T15:29:42;10.70;83.10
10233;DHT22;5161;48.174;11.756;2023-11-21T15:32:08;10.70;82.80
10233;DHT22;5161;48.174;11.756;2023-11-21T15:34:35;10.70;83.20
10233;DHT22;5161;48.174;11.756;2023-11-21T15:37:01;10.70;83.20
10233;DHT22;5161;48.174;11.756;2023-11-21T15:39:26;10.70;83.50
10233;DHT22;5161;48.174;11.756;2023-11-21T15:41:57;10.70;83.20
10233;DHT22;5161;48.174;11.756;2023-11-21T15:44:25;10.70;82.90
10233;DHT22;5161;48.174;11.756;2023-11-21T15:46:53;10.70;82.80